createdAt,value
2018-09-25T00:01:49.749Z,4.67
2018-09-25T00:05:19.198Z,9.67
2018-09-25T00:08:48.768Z,3.60
2018-09-25T00:12:18.323Z,9.40
2018-09-25T00:15:48.073Z,6.53
2018-09-25T00:19:17.650Z,10.47
2018-09-25T00:22:47.429Z,10.70
2018-09-25T00:26:17.043Z,6.57
2018-09-25T00:29:46.606Z,6.23
2018-09-25T00:33:16.160Z,6.63
2018-09-25T00:36:45.777Z,10.73
2018-09-25T00:40:15.358Z,6.40
2018-09-25T00:43:45.047Z,6.20
2018-09-25T00:47:14.603Z,5.63
2018-09-25T00:50:44.453Z,8.57
2018-09-25T00:54:14.199Z,8.93
2018-09-25T00:57:43.864Z,5.80
2018-09-25T01:01:13.473Z,8.87
2018-09-25T01:04:43.213Z,10.23
2018-09-25T01:08:12.845Z,9.80
2018-09-25T01:11:42.604Z,3.80
2018-09-25T01:15:12.159Z,7.53
2018-09-25T01:18:41.793Z,8.40
2018-09-25T01:22:11.540Z,9.23
2018-09-25T01:25:41.178Z,8.27
2018-09-25T01:29:10.875Z,6.00
2018-09-25T01:32:40.464Z,9.50
2018-09-25T01:36:10.114Z,7.53
2018-09-25T01:39:39.748Z,6.20
2018-09-25T01:43:09.643Z,5.20
2018-09-25T01:46:39.310Z,8.17
2018-09-25T01:50:08.859Z,6.67
2018-09-25T01:53:38.430Z,8.90
2018-09-25T01:57:08.041Z,11.60
2018-09-25T02:00:37.715Z,7.97
2018-09-25T02:04:07.336Z,6.57
2018-09-25T02:07:36.954Z,6.00
2018-09-25T02:11:06.607Z,8.40
2018-09-25T02:14:36.199Z,6.33
2018-09-25T02:18:05.913Z,9.23
2018-09-25T02:21:35.606Z,8.23
2018-09-25T02:25:05.180Z,8.63
2018-09-25T02:28:34.887Z,7.00
2018-09-25T02:32:04.658Z,8.60
2018-09-25T02:35:34.183Z,11.13
2018-09-25T02:39:03.818Z,7.57
2018-09-25T02:42:33.367Z,11.43
2018-09-25T02:46:02.860Z,8.70
2018-09-25T02:49:32.655Z,10.07
2018-09-25T02:53:02.217Z,8.93
2018-09-25T02:56:31.655Z,9.40
2018-09-25T03:00:01.591Z,8.43
2018-09-25T03:03:31.227Z,7.77
2018-09-25T03:07:00.955Z,8.93
2018-09-25T03:10:30.616Z,10.87
2018-09-25T03:14:00.273Z,10.70
2018-09-25T03:17:29.832Z,10.10
2018-09-25T03:20:59.711Z,12.37
2018-09-25T03:24:29.375Z,8.50
2018-09-25T03:27:58.969Z,15.67
2018-09-25T03:31:28.647Z,8.33
2018-09-25T03:34:58.203Z,9.87
2018-09-25T03:38:59.249Z,9.40
2018-09-25T03:42:28.826Z,11.13
2018-09-25T03:45:58.542Z,8.70
2018-09-25T03:49:28.193Z,9.13
2018-09-25T03:52:57.936Z,8.30
2018-09-25T03:56:27.618Z,10.13
2018-09-25T03:59:57.202Z,10.47
2018-09-25T04:03:26.761Z,10.77
2018-09-25T04:06:56.344Z,15.87
2018-09-25T04:10:25.984Z,10.77
2018-09-25T04:13:55.605Z,11.47
2018-09-25T04:17:25.210Z,16.03
2018-09-25T04:20:54.763Z,9.87
2018-09-25T04:24:24.268Z,9.40
2018-09-25T04:27:54.042Z,11.60
2018-09-25T04:31:23.801Z,15.40
2018-09-25T04:34:53.470Z,12.67
2018-09-25T04:38:23.319Z,10.03
2018-09-25T04:41:52.892Z,9.77
2018-09-25T04:45:22.630Z,10.40
2018-09-25T04:48:52.254Z,12.07
2018-09-25T04:52:22.021Z,10.33
2018-09-25T04:55:51.613Z,10.53
2018-09-25T04:59:21.412Z,10.33
2018-09-25T05:02:51.080Z,10.43
2018-09-25T05:06:20.769Z,13.83
2018-09-25T05:09:50.411Z,11.10
2018-09-25T05:13:20.170Z,14.90
2018-09-25T05:16:49.926Z,12.87
2018-09-25T05:20:19.706Z,12.07
2018-09-25T05:23:49.314Z,13.10
2018-09-25T05:27:18.903Z,13.23
2018-09-25T05:30:48.583Z,14.00
2018-09-25T05:34:18.049Z,10.03
2018-09-25T05:37:47.615Z,10.63
2018-09-25T05:41:17.092Z,14.10
2018-09-25T05:44:46.500Z,13.87
2018-09-25T05:48:16.406Z,12.13
2018-09-25T05:51:45.911Z,14.60
2018-09-25T05:55:15.540Z,13.87
2018-09-25T05:58:45.036Z,13.00
2018-09-25T06:02:14.721Z,15.13
2018-09-25T06:05:44.355Z,14.30
2018-09-25T06:09:14.812Z,13.17
2018-09-25T06:12:44.337Z,13.23
2018-09-25T06:16:13.853Z,15.53
2018-09-25T06:19:43.537Z,19.27
2018-09-25T06:23:13.107Z,27.23
2018-09-25T06:26:42.715Z,16.07
2018-09-25T06:30:12.833Z,24.83
2018-09-25T06:33:42.551Z,21.60
2018-09-25T06:37:12.299Z,21.33
2018-09-25T06:40:42.023Z,23.67
2018-09-25T06:44:11.616Z,20.20
2018-09-25T06:47:41.255Z,26.17
2018-09-25T06:51:10.884Z,31.77
2018-09-25T06:54:40.582Z,26.90
2018-09-25T06:58:10.282Z,24.00
2018-09-25T07:01:39.784Z,26.93
2018-09-25T07:05:09.520Z,27.83
2018-09-25T07:08:39.115Z,25.93
2018-09-25T07:12:08.609Z,28.23
2018-09-25T07:15:38.495Z,25.27
2018-09-25T07:19:08.072Z,30.93
2018-09-25T07:22:37.636Z,24.97
2018-09-25T07:26:07.440Z,28.73
2018-09-25T07:29:36.842Z,30.13
2018-09-25T07:33:06.438Z,32.63
2018-09-25T07:36:35.863Z,33.27
2018-09-25T07:40:05.474Z,34.47
2018-09-25T07:43:35.080Z,36.73
2018-09-25T07:47:04.681Z,26.73
2018-09-25T07:50:34.240Z,30.27
2018-09-25T07:54:03.806Z,32.67
2018-09-25T07:57:33.251Z,29.57
2018-09-25T08:01:02.845Z,24.00
2018-09-25T08:04:32.478Z,20.93
2018-09-25T08:08:02.068Z,22.63
2018-09-25T08:11:31.653Z,17.37
2018-09-25T08:15:01.495Z,18.90
2018-09-25T08:18:30.968Z,12.87
2018-09-25T08:22:00.654Z,15.40
2018-09-25T08:25:30.168Z,19.50
2018-09-25T08:28:59.752Z,18.40
2018-09-25T08:32:29.404Z,22.73
2018-09-25T08:35:58.907Z,17.97
2018-09-25T08:39:28.778Z,17.27
2018-09-25T08:42:58.200Z,20.53
2018-09-25T08:46:27.866Z,24.87
2018-09-25T08:50:04.198Z,20.27
2018-09-25T08:53:33.799Z,22.90
2018-09-25T08:57:03.367Z,16.07
2018-09-25T09:00:33.051Z,18.00
2018-09-25T09:04:02.648Z,19.73
2018-09-25T09:07:32.542Z,14.70
2018-09-25T09:11:02.128Z,16.07
2018-09-25T09:14:31.882Z,23.40
2018-09-25T09:18:01.505Z,31.10
2018-09-25T09:21:30.973Z,33.27
2018-09-25T09:25:00.534Z,33.80
2018-09-25T09:28:30.213Z,42.13
2018-09-25T09:31:59.902Z,42.62
2018-09-25T09:35:29.434Z,39.88
2018-09-25T09:38:59.062Z,43.92
2018-09-25T09:42:28.587Z,26.40
2018-09-25T09:45:58.059Z,38.35
2018-09-25T09:49:27.788Z,41.33
2018-09-25T09:52:57.408Z,40.17
2018-09-25T09:56:27.108Z,29.87
2018-09-25T09:59:56.625Z,30.62
2018-09-25T10:03:26.224Z,25.92
2018-09-25T10:06:55.893Z,33.88
2018-09-25T10:10:25.361Z,29.90
2018-09-25T10:13:54.825Z,24.90
2018-09-25T10:17:24.516Z,33.70
2018-09-25T10:20:54.101Z,25.02
2018-09-25T10:24:23.629Z,18.45
2018-09-25T10:27:53.402Z,21.15
2018-09-25T10:31:23.033Z,14.70
2018-09-25T10:34:52.467Z,17.75
2018-09-25T10:38:22.079Z,16.82
2018-09-25T10:41:51.535Z,18.55
2018-09-25T10:45:21.061Z,16.25
2018-09-25T10:48:50.620Z,12.25
2018-09-25T10:52:20.188Z,13.03
2018-09-25T10:55:49.791Z,14.50
2018-09-25T10:59:19.302Z,15.78
2018-09-25T11:02:49.114Z,11.15
2018-09-25T11:06:18.601Z,14.20
2018-09-25T11:09:48.306Z,10.35
2018-09-25T11:13:17.899Z,11.43
2018-09-25T11:16:47.571Z,11.33
2018-09-25T11:20:17.164Z,12.55
2018-09-25T11:23:46.870Z,11.20
2018-09-25T11:27:16.542Z,12.00
2018-09-25T11:30:46.067Z,11.40
2018-09-25T11:34:15.749Z,12.37
2018-09-25T11:37:45.525Z,12.20
2018-09-25T11:41:15.397Z,8.18
2018-09-25T11:44:45.151Z,8.88
2018-09-25T11:48:14.974Z,12.80
2018-09-25T11:51:44.501Z,12.05
2018-09-25T11:55:14.259Z,10.58
2018-09-25T11:58:43.674Z,11.78
2018-09-25T12:02:13.473Z,9.00
2018-09-25T12:05:43.038Z,8.40
2018-09-25T12:09:14.872Z,8.83
2018-09-25T12:12:44.723Z,12.63
2018-09-25T12:16:14.416Z,14.85
2018-09-25T12:19:44.173Z,7.67
2018-09-25T12:23:13.905Z,11.12
2018-09-25T12:26:44.102Z,7.87
2018-09-25T12:30:13.905Z,5.78
2018-09-25T12:33:43.594Z,9.75
2018-09-25T12:37:17.666Z,13.50
2018-09-25T12:40:47.318Z,12.28
2018-09-25T12:44:16.921Z,6.72
2018-09-25T12:47:46.447Z,8.63
2018-09-25T12:51:16.230Z,10.25
2018-09-25T12:54:45.798Z,9.43
2018-09-25T12:58:15.614Z,7.92
2018-09-25T13:01:45.179Z,6.40
2018-09-25T13:05:14.792Z,12.18
2018-09-25T13:08:44.382Z,10.48
2018-09-25T13:12:13.878Z,12.10
2018-09-25T13:15:43.656Z,8.70
2018-09-25T13:19:13.473Z,9.43
2018-09-25T13:22:43.246Z,8.20
2018-09-25T13:26:12.965Z,9.60
2018-09-25T13:29:42.706Z,6.95
2018-09-25T13:33:12.341Z,9.03
2018-09-25T13:36:42.037Z,10.18
2018-09-25T13:40:12.187Z,11.28
2018-09-25T13:43:41.685Z,7.78
2018-09-25T13:47:11.311Z,10.05
2018-09-25T13:50:41.089Z,7.65
2018-09-25T13:54:10.665Z,10.00
2018-09-25T13:57:40.231Z,12.40
2018-09-25T14:01:09.927Z,8.93
2018-09-25T14:04:39.453Z,8.48
2018-09-25T14:08:09.159Z,7.33
2018-09-25T14:11:38.971Z,7.15
2018-09-25T14:15:08.517Z,8.05
2018-09-25T14:18:38.092Z,6.75
2018-09-25T14:22:07.753Z,8.95
2018-09-25T14:25:37.380Z,7.10
2018-09-25T14:29:06.776Z,9.83
2018-09-25T14:32:36.527Z,8.70
2018-09-25T14:36:06.208Z,6.30
2018-09-25T14:39:35.907Z,6.22
2018-09-25T14:43:05.639Z,4.65
2018-09-25T14:46:35.195Z,4.45
2018-09-25T14:50:04.832Z,4.62
2018-09-25T14:53:34.595Z,3.75
2018-09-25T14:57:04.247Z,5.03
2018-09-25T15:00:33.931Z,4.47
2018-09-25T15:04:03.532Z,4.65
2018-09-25T15:07:33.214Z,4.90
2018-09-25T15:11:02.841Z,6.53
2018-09-25T15:14:32.598Z,5.42
2018-09-25T15:18:02.167Z,8.35
2018-09-25T15:21:31.932Z,4.28
2018-09-25T15:25:01.417Z,6.20
2018-09-25T15:28:30.944Z,3.17
2018-09-25T15:32:00.682Z,4.53
2018-09-25T15:35:30.253Z,11.10
2018-09-25T15:38:59.713Z,3.37
2018-09-25T15:42:29.334Z,4.00
2018-09-25T15:45:58.987Z,6.50
2018-09-25T15:49:28.457Z,6.58
2018-09-25T15:52:58.108Z,3.83
2018-09-25T16:04:34.129Z,6.97
2018-09-25T16:08:03.632Z,2.08
2018-09-25T16:11:33.197Z,4.25
2018-09-25T16:15:03.036Z,5.58
2018-09-25T16:18:32.549Z,7.55
2018-09-25T16:22:02.314Z,3.05
2018-09-25T16:25:31.828Z,4.72
2018-09-25T16:29:01.626Z,3.45
2018-09-25T16:32:31.184Z,2.08
2018-09-25T16:36:00.801Z,3.47
2018-09-25T16:39:29.794Z,2.65
2018-09-25T16:42:59.455Z,2.22
2018-09-25T16:46:29.145Z,4.25
2018-09-25T16:49:58.904Z,4.40
2018-09-25T16:53:28.531Z,2.80
2018-09-25T16:56:58.161Z,2.83
2018-09-25T17:00:27.665Z,3.08
2018-09-25T17:03:57.177Z,2.35
2018-09-25T17:07:26.735Z,3.17
2018-09-25T17:10:56.305Z,5.25
2018-09-25T17:14:25.954Z,7.47
2018-09-25T17:17:55.635Z,4.10
2018-09-25T17:21:25.353Z,2.75
2018-09-25T17:24:55.466Z,4.53
2018-09-25T17:28:25.162Z,4.22
2018-09-25T17:31:54.749Z,4.03
2018-09-25T17:35:24.520Z,4.30
2018-09-25T17:38:54.366Z,5.28
2018-09-25T17:42:24.012Z,5.95
2018-09-25T17:45:53.568Z,6.10
2018-09-25T17:49:23.198Z,5.83
2018-09-25T17:52:52.839Z,5.03
2018-09-25T17:56:22.249Z,5.20
2018-09-25T17:59:52.054Z,5.00
2018-09-25T18:03:21.543Z,6.07
2018-09-25T18:06:51.108Z,5.37
2018-09-25T18:10:20.628Z,8.57
2018-09-25T18:13:50.157Z,7.07
2018-09-25T18:17:20.000Z,12.90
2018-09-25T18:20:49.646Z,10.87
2018-09-25T18:24:19.366Z,9.80
2018-09-25T18:27:49.206Z,11.93
2018-09-25T18:31:18.608Z,10.53
2018-09-25T18:34:48.346Z,10.17
2018-09-25T18:38:17.964Z,10.60
2018-09-25T18:41:47.569Z,10.73
2018-09-25T18:45:17.271Z,9.73
2018-09-25T18:48:47.012Z,12.07
2018-09-25T18:52:17.027Z,10.37
2018-09-25T18:55:46.719Z,13.60
2018-09-25T18:59:16.316Z,14.17
2018-09-25T19:02:46.051Z,13.77
2018-09-25T19:06:15.563Z,15.27
2018-09-25T19:09:45.228Z,14.50
2018-09-25T19:13:14.862Z,10.87
2018-09-25T19:16:44.334Z,12.87
2018-09-25T19:20:14.061Z,11.70
2018-09-25T19:23:43.694Z,12.47
2018-09-25T19:27:13.381Z,11.60
2018-09-25T19:30:43.155Z,11.27
2018-09-25T19:34:13.006Z,10.50
2018-09-25T19:37:42.722Z,11.90
2018-09-25T19:41:13.444Z,9.60
2018-09-25T19:44:43.386Z,12.27
2018-09-25T19:48:12.996Z,10.83
2018-09-25T19:51:42.517Z,9.93
2018-09-25T19:55:12.190Z,9.97
2018-09-25T19:58:41.637Z,17.50
2018-09-25T20:02:11.487Z,11.27
2018-09-25T20:05:41.224Z,14.37
2018-09-25T20:09:13.607Z,11.80
2018-09-25T20:12:43.251Z,11.87
2018-09-25T20:16:12.919Z,13.03
2018-09-25T20:19:42.683Z,13.87
2018-09-25T20:23:12.306Z,11.37
2018-09-25T20:26:42.094Z,13.00
2018-09-25T20:30:11.734Z,13.07
2018-09-25T20:33:42.697Z,10.20
2018-09-25T20:37:12.610Z,11.60
2018-09-25T20:40:42.211Z,13.10
2018-09-25T20:44:12.392Z,11.33
2018-09-25T20:47:42.205Z,12.03
2018-09-25T20:51:12.040Z,11.43
2018-09-25T20:54:41.733Z,12.47
2018-09-25T20:58:11.426Z,11.97
2018-09-25T21:01:41.193Z,10.87
2018-09-25T21:05:10.628Z,12.27
2018-09-25T21:08:40.192Z,9.27
2018-09-25T21:12:09.723Z,6.50
2018-09-25T21:15:39.621Z,9.40
2018-09-25T21:19:09.120Z,7.77
2018-09-25T21:22:38.733Z,8.60
2018-09-25T21:26:08.442Z,8.37
2018-09-25T21:29:38.054Z,7.20
2018-09-25T21:33:07.554Z,6.07
2018-09-25T21:36:37.339Z,6.83
2018-09-25T21:40:07.094Z,8.90
2018-09-25T21:43:36.794Z,9.17
2018-09-25T21:47:06.571Z,13.30
2018-09-25T21:50:35.964Z,5.70
2018-09-25T21:54:05.665Z,9.37
2018-09-25T21:57:35.417Z,6.67
2018-09-25T22:01:05.196Z,6.63
2018-09-25T22:04:34.956Z,7.60
2018-09-25T22:08:04.768Z,7.00
2018-09-25T22:11:34.470Z,10.17
2018-09-25T22:15:04.728Z,6.93
2018-09-25T22:18:34.215Z,5.93
2018-09-25T22:22:03.886Z,6.53
2018-09-25T22:25:33.521Z,5.40
2018-09-25T22:29:03.207Z,7.33
2018-09-25T22:32:32.823Z,10.13
2018-09-25T22:36:02.494Z,6.97
2018-09-25T22:39:31.958Z,7.13
2018-09-25T22:43:01.739Z,13.13
2018-09-25T22:46:31.411Z,6.67
2018-09-25T22:50:01.227Z,8.40
2018-09-25T22:53:30.875Z,8.70
2018-09-25T22:57:00.699Z,9.20
2018-09-25T23:00:30.403Z,7.03
2018-09-25T23:04:00.044Z,6.23
2018-09-25T23:07:29.586Z,11.63
2018-09-25T23:10:59.267Z,8.77
2018-09-25T23:14:29.217Z,6.70
2018-09-25T23:17:58.899Z,11.53
2018-09-25T23:21:28.493Z,9.70
2018-09-25T23:24:58.324Z,12.27
2018-09-25T23:28:27.977Z,7.40
2018-09-25T23:31:57.421Z,12.93
2018-09-25T23:35:27.189Z,10.47
2018-09-25T23:38:56.930Z,10.63
2018-09-25T23:42:26.475Z,9.70
2018-09-25T23:45:56.247Z,12.17
2018-09-25T23:49:27.873Z,9.10
2018-09-25T23:52:59.415Z,6.80
2018-09-25T23:56:28.961Z,10.37
2018-09-25T23:59:59.363Z,8.97
